sensor_id;sensor_type;location;lat;lon;timestamp;pressure;altitude;pressure_sealevel;temperature;humidity
26937;BME280;14495;48.116;11.676;2022-11-20T00:01:35;94972.75;;;7.65;100.00
26937;BME280;14495;48.116;11.676;2022-11-20T00:04:00;94965.06;;;7.35;100.00
26937;BME280;14495;48.116;11.676;2022-11-20T00:06:27;94970.53;;;7.30;100.00
26937;BME280;14495;48.116;11.676;2022-11-20T00:08:55;94967.47;;;7.24;100.00
26937;BME280;14495;48.116;11.676;2022-11-20T00:11:22;94972.75;;;7.80;100.00
26937;BME280;14495;48.116;11.676;2022-11-20T00:13:51;94967.75;;;7.62;100.00
26937;BME280;14495;48.116;11.676;2022-11-20T00:16:19;94961.22;;;7.84;100.00
26937;BME280;14495;48.116;11.676;2022-11-20T00:18:45;94969.00;;;7.98;100.00
26937;BME280;14495;48.116;11.676;2022-11-20T00:21:16;94973.41;;;7.83;100.00
26937;BME280;14495;48.116;11.676;2022-11-20T00:23:42;94976.16;;;7.94;100.00
26937;BME280;14495;48.116;11.676;2022-11-20T00:26:10;94973.50;;;7.67;100.00
26937;BME280;14495;48.116;11.676;2022-11-20T00:28:35;94974.44;;;7.38;100.00
26937;BME280;14495;48.116;11.676;2022-11-20T00:31:06;94975.72;;;7.73;100.00
26937;BME280;14495;48.116;11.676;2022-11-20T00:33:32;94976.38;;;7.77;100.00
26937;BME280;14495;48.116;11.676;2022-11-20T00:36:06;94981.47;;;7.93;100.00
26937;BME280;14495;48.116;11.676;2022-11-20T00:38:32;94978.38;;;8.01;100.00
26937;BME280;14495;48.116;11.676;2022-11-20T00:40:59;94977.69;;;8.26;100.00
26937;BME280;14495;48.116;11.676;2022-11-20T00:43:26;94984.34;;;8.30;100.00
26937;BME280;14495;48.116;11.676;2022-11-20T00:45:59;94989.09;;;8.23;100.00
26937;BME280;14495;48.116;11.676;2022-11-20T00:48:25;94988.22;;;8.10;100.00
26937;BME280;14495;48.116;11.676;2022-11-20T00:50:50;94998.03;;;7.78;100.00
26937;BME280;14495;48.116;11.676;2022-11-20T00:53:16;94981.22;;;7.69;100.00
26937;BME280;14495;48.116;11.676;2022-11-20T00:55:41;94988.91;;;7.42;100.00
26937;BME280;14495;48.116;11.676;2022-11-20T00:58:06;94989.09;;;7.53;100.00
26937;BME280;14495;48.116;11.676;2022-11-20T01:00:32;94993.56;;;7.22;100.00
26937;BME280;14495;48.116;11.676;2022-11-20T01:02:57;94993.53;;;7.36;100.00
26937;BME280;14495;48.116;11.676;2022-11-20T01:05:22;94996.34;;;7.33;100.00
26937;BME280;14495;48.116;11.676;2022-11-20T01:07:48;95004.19;;;7.18;100.00
26937;BME280;14495;48.116;11.676;2022-11-20T01:10:13;95000.44;;;7.66;100.00
26937;BME280;14495;48.116;11.676;2022-11-20T01:12:38;95005.41;;;7.12;100.00
26937;BME280;14495;48.116;11.676;2022-11-20T01:15:04;95006.75;;;7.48;100.00
26937;BME280;14495;48.116;11.676;2022-11-20T01:17:31;95006.38;;;7.54;100.00
26937;BME280;14495;48.116;11.676;2022-11-20T01:19:56;95002.66;;;7.29;100.00
26937;BME280;14495;48.116;11.676;2022-11-20T01:22:22;95012.59;;;7.80;100.00
26937;BME280;14495;48.116;11.676;2022-11-20T01:24:47;95006.28;;;7.41;100.00
26937;BME280;14495;48.116;11.676;2022-11-20T01:27:12;95009.91;;;7.53;100.00
26937;BME280;14495;48.116;11.676;2022-11-20T01:29:38;95009.22;;;8.07;100.00
26937;BME280;14495;48.116;11.676;2022-11-20T01:32:03;95008.59;;;7.46;100.00
26937;BME280;14495;48.116;11.676;2022-11-20T01:34:28;95007.31;;;7.82;100.00
26937;BME280;14495;48.116;11.676;2022-11-20T01:36:54;95012.50;;;7.39;100.00
26937;BME280;14495;48.116;11.676;2022-11-20T01:39:22;95013.72;;;7.62;100.00
26937;BME280;14495;48.116;11.676;2022-11-20T01:41:48;95006.91;;;8.02;100.00
26937;BME280;14495;48.116;11.676;2022-11-20T01:44:58;95014.53;;;7.62;100.00
26937;BME280;14495;48.116;11.676;2022-11-20T01:47:29;95004.22;;;8.04;100.00
26937;BME280;14495;48.116;11.676;2022-11-20T01:50:01;95010.66;;;7.84;100.00
26937;BME280;14495;48.116;11.676;2022-11-20T01:52:48;95013.81;;;7.74;100.00
26937;BME280;14495;48.116;11.676;2022-11-20T01:55:19;95012.97;;;7.74;100.00
26937;BME280;14495;48.116;11.676;2022-11-20T01:57:48;95011.41;;;7.57;100.00
26937;BME280;14495;48.116;11.676;2022-11-20T02:00:17;95010.00;;;7.94;100.00
26937;BME280;14495;48.116;11.676;2022-11-20T02:02:47;95008.19;;;8.24;100.00
26937;BME280;14495;48.116;11.676;2022-11-20T02:05:32;95009.47;;;7.61;100.00
26937;BME280;14495;48.116;11.676;2022-11-20T02:07:59;95018.75;;;7.65;100.00
26937;BME280;14495;48.116;11.676;2022-11-20T02:10:26;95003.88;;;7.52;100.00
26937;BME280;14495;48.116;11.676;2022-11-20T02:12:52;95007.41;;;7.51;100.00
26937;BME280;14495;48.116;11.676;2022-11-20T02:15:36;95005.06;;;7.47;100.00
26937;BME280;14495;48.116;11.676;2022-11-20T02:18:01;95010.38;;;7.60;100.00
26937;BME280;14495;48.116;11.676;2022-11-20T02:20:27;95006.75;;;7.62;100.00
26937;BME280;14495;48.116;11.676;2022-11-20T02:23:03;95008.50;;;7.62;100.00
26937;BME280;14495;48.116;11.676;2022-11-20T02:25:32;95009.38;;;7.48;100.00
26937;BME280;14495;48.116;11.676;2022-11-20T02:27:58;95016.03;;;7.52;100.00
26937;BME280;14495;48.116;11.676;2022-11-20T02:30:24;95016.88;;;7.81;100.00
26937;BME280;14495;48.116;11.676;2022-11-20T02:32:49;95016.00;;;7.09;100.00
26937;BME280;14495;48.116;11.676;2022-11-20T02:37:43;95008.13;;;7.68;100.00
26937;BME280;14495;48.116;11.676;2022-11-20T02:40:10;95019.19;;;8.00;100.00
26937;BME280;14495;48.116;11.676;2022-11-20T02:42:36;95015.66;;;7.72;100.00
26937;BME280;14495;48.116;11.676;2022-11-20T02:45:05;95014.06;;;7.84;100.00
26937;BME280;14495;48.116;11.676;2022-11-20T02:47:31;95022.53;;;7.59;100.00
26937;BME280;14495;48.116;11.676;2022-11-20T02:49:57;95020.91;;;8.14;100.00
26937;BME280;14495;48.116;11.676;2022-11-20T02:52:23;95009.00;;;7.68;100.00
26937;BME280;14495;48.116;11.676;2022-11-20T02:54:49;95017.78;;;8.09;100.00
26937;BME280;14495;48.116;11.676;2022-11-20T02:57:14;95014.06;;;7.41;100.00
26937;BME280;14495;48.116;11.676;2022-11-20T02:59:39;95006.00;;;7.74;100.00
26937;BME280;14495;48.116;11.676;2022-11-20T03:02:05;95018.72;;;7.93;100.00
26937;BME280;14495;48.116;11.676;2022-11-20T03:04:30;95008.94;;;7.97;100.00
26937;BME280;14495;48.116;11.676;2022-11-20T03:06:56;95012.75;;;8.06;100.00
26937;BME280;14495;48.116;11.676;2022-11-20T03:09:21;95006.34;;;7.83;100.00
26937;BME280;14495;48.116;11.676;2022-11-20T03:11:47;95001.78;;;8.15;100.00
26937;BME280;14495;48.116;11.676;2022-11-20T03:14:12;95007.47;;;7.35;100.00
26937;BME280;14495;48.116;11.676;2022-11-20T03:16:38;95006.34;;;8.11;100.00
26937;BME280;14495;48.116;11.676;2022-11-20T03:19:03;95006.81;;;8.18;100.00
26937;BME280;14495;48.116;11.676;2022-11-20T03:21:28;95005.81;;;7.49;100.00
26937;BME280;14495;48.116;11.676;2022-11-20T03:23:54;95014.56;;;7.48;100.00
26937;BME280;14495;48.116;11.676;2022-11-20T03:26:22;95004.03;;;7.49;100.00
26937;BME280;14495;48.116;11.676;2022-11-20T03:28:53;94999.22;;;7.58;100.00
26937;BME280;14495;48.116;11.676;2022-11-20T03:31:21;95002.75;;;7.57;100.00
26937;BME280;14495;48.116;11.676;2022-11-20T03:33:48;95008.88;;;7.41;100.00
26937;BME280;14495;48.116;11.676;2022-11-20T03:36:15;95006.38;;;7.54;100.00
26937;BME280;14495;48.116;11.676;2022-11-20T03:38:41;95018.84;;;7.78;100.00
26937;BME280;14495;48.116;11.676;2022-11-20T03:41:12;95009.38;;;7.48;100.00
26937;BME280;14495;48.116;11.676;2022-11-20T03:43:37;95003.94;;;7.36;100.00
26937;BME280;14495;48.116;11.676;2022-11-20T03:46:04;95011.50;;;7.55;100.00
26937;BME280;14495;48.116;11.676;2022-11-20T03:48:30;94998.13;;;7.03;100.00
26937;BME280;14495;48.116;11.676;2022-11-20T03:53:38;94992.81;;;7.78;100.00
26937;BME280;14495;48.116;11.676;2022-11-20T03:56:03;95000.25;;;7.55;100.00
26937;BME280;14495;48.116;11.676;2022-11-20T03:58:29;95004.31;;;7.73;100.00
26937;BME280;14495;48.116;11.676;2022-11-20T04:00:54;95002.00;;;7.83;100.00
26937;BME280;14495;48.116;11.676;2022-11-20T04:03:20;95014.91;;;7.56;100.00
26937;BME280;14495;48.116;11.676;2022-11-20T04:05:45;95011.94;;;7.77;100.00
26937;BME280;14495;48.116;11.676;2022-11-20T04:08:10;95008.78;;;7.43;100.00
26937;BME280;14495;48.116;11.676;2022-11-20T04:10:36;95009.00;;;7.68;100.00
26937;BME280;14495;48.116;11.676;2022-11-20T04:13:01;95019.34;;;7.40;100.00
26937;BME280;14495;48.116;11.676;2022-11-20T04:15:26;95015.84;;;7.55;100.00
26937;BME280;14495;48.116;11.676;2022-11-20T04:17:52;95015.31;;;7.50;100.00
26937;BME280;14495;48.116;11.676;2022-11-20T04:20:17;95017.34;;;7.45;100.00
26937;BME280;14495;48.116;11.676;2022-11-20T04:22:42;95008.59;;;7.46;100.00
26937;BME280;14495;48.116;11.676;2022-11-20T04:25:08;95019.34;;;7.40;100.00
26937;BME280;14495;48.116;11.676;2022-11-20T04:27:33;95018.66;;;7.66;100.00
26937;BME280;14495;48.116;11.676;2022-11-20T04:29:58;95017.81;;;7.51;100.00
26937;BME280;14495;48.116;11.676;2022-11-20T04:32:24;95015.94;;;7.39;100.00
26937;BME280;14495;48.116;11.676;2022-11-20T04:34:49;95016.19;;;7.20;100.00
26937;BME280;14495;48.116;11.676;2022-11-20T04:37:14;95015.25;;;7.21;100.00
26937;BME280;14495;48.116;11.676;2022-11-20T04:39:39;95008.22;;;7.38;100.00
26937;BME280;14495;48.116;11.676;2022-11-20T04:42:05;95014.28;;;7.52;100.00
26937;BME280;14495;48.116;11.676;2022-11-20T04:44:49;95013.25;;;7.41;100.00
26937;BME280;14495;48.116;11.676;2022-11-20T04:47:14;95013.44;;;7.81;100.00
26937;BME280;14495;48.116;11.676;2022-11-20T04:49:39;95012.91;;;7.76;100.00
26937;BME280;14495;48.116;11.676;2022-11-20T04:52:05;95017.59;;;7.54;100.00
26937;BME280;14495;48.116;11.676;2022-11-20T04:54:30;95016.94;;;7.51;100.00
26937;BME280;14495;48.116;11.676;2022-11-20T04:56:55;95011.41;;;7.57;100.00
26937;BME280;14495;48.116;11.676;2022-11-20T04:59:21;95016.22;;;7.78;100.00
26937;BME280;14495;48.116;11.676;2022-11-20T05:01:47;95011.50;;;7.70;100.00
26937;BME280;14495;48.116;11.676;2022-11-20T05:04:12;95017.69;;;7.53;100.00
26937;BME280;14495;48.116;11.676;2022-11-20T05:06:37;95012.16;;;7.59;100.00
26937;BME280;14495;48.116;11.676;2022-11-20T05:09:03;95010.72;;;7.25;100.00
26937;BME280;14495;48.116;11.676;2022-11-20T05:11:28;95010.53;;;7.28;100.00
26937;BME280;14495;48.116;11.676;2022-11-20T05:13:54;95009.88;;;7.24;100.00
26937;BME280;14495;48.116;11.676;2022-11-20T05:16:22;95010.56;;;7.42;100.00
26937;BME280;14495;48.116;11.676;2022-11-20T05:18:48;95012.78;;;7.77;100.00
26937;BME280;14495;48.116;11.676;2022-11-20T05:21:14;95013.91;;;7.44;100.00
26937;BME280;14495;48.116;11.676;2022-11-20T05:23:41;95013.03;;;7.44;100.00
26937;BME280;14495;48.116;11.676;2022-11-20T05:26:08;95014.38;;;7.65;100.00
26937;BME280;14495;48.116;11.676;2022-11-20T05:28:36;95015.09;;;7.53;100.00
26937;BME280;14495;48.116;11.676;2022-11-20T05:31:10;95023.25;;;7.18;100.00
26937;BME280;14495;48.116;11.676;2022-11-20T05:33:36;95019.00;;;7.60;100.00
26937;BME280;14495;48.116;11.676;2022-11-20T05:36:05;95012.03;;;7.32;100.00
26937;BME280;14495;48.116;11.676;2022-11-20T05:38:31;95020.88;;;7.72;100.00
26937;BME280;14495;48.116;11.676;2022-11-20T05:41:06;95018.72;;;7.36;100.00
26937;BME280;14495;48.116;11.676;2022-11-20T05:43:33;95027.25;;;7.24;100.00
26937;BME280;14495;48.116;11.676;2022-11-20T05:45:59;95030.63;;;7.83;100.00
26937;BME280;14495;48.116;11.676;2022-11-20T05:48:24;95029.09;;;7.36;100.00
26937;BME280;14495;48.116;11.676;2022-11-20T05:50:49;95029.38;;;7.46;100.00
26937;BME280;14495;48.116;11.676;2022-11-20T05:53:15;95032.00;;;7.31;100.00
26937;BME280;14495;48.116;11.676;2022-11-20T05:55:40;95036.25;;;7.32;100.00
26937;BME280;14495;48.116;11.676;2022-11-20T05:58:05;95037.16;;;7.17;100.00
26937;BME280;14495;48.116;11.676;2022-11-20T06:00:31;95044.41;;;7.26;100.00
26937;BME280;14495;48.116;11.676;2022-11-20T06:02:56;95029.59;;;7.43;100.00
26937;BME280;14495;48.116;11.676;2022-11-20T06:05:21;95034.06;;;7.10;100.00
26937;BME280;14495;48.116;11.676;2022-11-20T06:07:47;95027.44;;;7.35;100.00
26937;BME280;14495;48.116;11.676;2022-11-20T06:10:12;95031.69;;;6.91;100.00
26937;BME280;14495;48.116;11.676;2022-11-20T06:12:37;95029.78;;;6.79;100.00
26937;BME280;14495;48.116;11.676;2022-11-20T06:15:04;95035.63;;;6.99;100.00
26937;BME280;14495;48.116;11.676;2022-11-20T06:17:30;95028.19;;;6.92;100.00
26937;BME280;14495;48.116;11.676;2022-11-20T06:19:55;95028.78;;;7.12;100.00
26937;BME280;14495;48.116;11.676;2022-11-20T06:22:20;95026.38;;;7.09;100.00
26937;BME280;14495;48.116;11.676;2022-11-20T06:24:46;95030.78;;;6.92;100.00
26937;BME280;14495;48.116;11.676;2022-11-20T06:27:11;95024.56;;;6.95;100.00
26937;BME280;14495;48.116;11.676;2022-11-20T06:29:36;95032.19;;;6.98;100.00
26937;BME280;14495;48.116;11.676;2022-11-20T06:32:02;95026.72;;;6.72;100.00
26937;BME280;14495;48.116;11.676;2022-11-20T06:34:27;95035.09;;;7.08;100.00
26937;BME280;14495;48.116;11.676;2022-11-20T06:36:52;95029.72;;;6.81;100.00
26937;BME280;14495;48.116;11.676;2022-11-20T06:39:17;95032.53;;;6.92;100.00
26937;BME280;14495;48.116;11.676;2022-11-20T06:41:43;95028.78;;;6.82;100.00
26937;BME280;14495;48.116;11.676;2022-11-20T06:44:08;95045.34;;;6.65;100.00
26937;BME280;14495;48.116;11.676;2022-11-20T06:46:33;95044.06;;;6.72;100.00
26937;BME280;14495;48.116;11.676;2022-11-20T06:48:59;95042.38;;;6.55;100.00
26937;BME280;14495;48.116;11.676;2022-11-20T06:51:24;95047.28;;;6.75;100.00
26937;BME280;14495;48.116;11.676;2022-11-20T06:53:50;95049.13;;;7.20;100.00
26937;BME280;14495;48.116;11.676;2022-11-20T06:56:15;95055.88;;;6.77;100.00
26937;BME280;14495;48.116;11.676;2022-11-20T06:58:40;95056.41;;;6.99;100.00
26937;BME280;14495;48.116;11.676;2022-11-20T07:01:10;95061.34;;;7.18;100.00
26937;BME280;14495;48.116;11.676;2022-11-20T07:03:36;95069.06;;;7.19;100.00
26937;BME280;14495;48.116;11.676;2022-11-20T07:06:02;95062.78;;;6.77;100.00
26937;BME280;14495;48.116;11.676;2022-11-20T07:08:28;95063.28;;;7.00;100.00
26937;BME280;14495;48.116;11.676;2022-11-20T07:10:57;95068.00;;;6.77;100.00
26937;BME280;14495;48.116;11.676;2022-11-20T07:13:23;95075.63;;;6.80;100.00
26937;BME280;14495;48.116;11.676;2022-11-20T07:15:49;95071.59;;;6.90;100.00
26937;BME280;14495;48.116;11.676;2022-11-20T07:18:14;95065.97;;;6.98;100.00
26937;BME280;14495;48.116;11.676;2022-11-20T07:20:39;95069.00;;;6.90;100.00
26937;BME280;14495;48.116;11.676;2022-11-20T07:23:04;95070.88;;;7.03;100.00
26937;BME280;14495;48.116;11.676;2022-11-20T07:25:30;95067.41;;;7.18;100.00
26937;BME280;14495;48.116;11.676;2022-11-20T07:27:59;95068.28;;;7.03;100.00
26937;BME280;14495;48.116;11.676;2022-11-20T07:30:25;95077.06;;;7.30;100.00
26937;BME280;14495;48.116;11.676;2022-11-20T07:32:52;95077.44;;;7.24;100.00
26937;BME280;14495;48.116;11.676;2022-11-20T07:35:17;95085.66;;;7.47;100.00
26937;BME280;14495;48.116;11.676;2022-11-20T07:37:43;95078.84;;;7.30;100.00
26937;BME280;14495;48.116;11.676;2022-11-20T07:40:14;95074.81;;;6.94;100.00
26937;BME280;14495;48.116;11.676;2022-11-20T07:42:50;95072.47;;;7.64;100.00
26937;BME280;14495;48.116;11.676;2022-11-20T07:45:16;95073.56;;;7.31;100.00
26937;BME280;14495;48.116;11.676;2022-11-20T07:47:42;95069.88;;;7.05;100.00
26937;BME280;14495;48.116;11.676;2022-11-20T07:50:07;95080.81;;;7.55;100.00
26937;BME280;14495;48.116;11.676;2022-11-20T07:52:33;95081.31;;;7.62;100.00
26937;BME280;14495;48.116;11.676;2022-11-20T07:54:58;95069.13;;;7.62;100.00
26937;BME280;14495;48.116;11.676;2022-11-20T07:57:23;95070.09;;;7.31;100.00
26937;BME280;14495;48.116;11.676;2022-11-20T07:59:49;95082.19;;;7.91;100.00
26937;BME280;14495;48.116;11.676;2022-11-20T08:02:14;95078.31;;;7.39;100.00
26937;BME280;14495;48.116;11.676;2022-11-20T08:04:39;95088.50;;;7.28;100.00
26937;BME280;14495;48.116;11.676;2022-11-20T08:07:04;95080.75;;;7.42;100.00
26937;BME280;14495;48.116;11.676;2022-11-20T08:09:30;95081.56;;;7.43;100.00
26937;BME280;14495;48.116;11.676;2022-11-20T08:11:55;95085.34;;;7.82;100.00
26937;BME280;14495;48.116;11.676;2022-11-20T08:14:39;95077.41;;;8.12;100.00
26937;BME280;14495;48.116;11.676;2022-11-20T08:17:04;95075.84;;;8.09;100.00
26937;BME280;14495;48.116;11.676;2022-11-20T08:19:30;95079.97;;;7.85;100.00
26937;BME280;14495;48.116;11.676;2022-11-20T08:21:55;95085.13;;;7.70;100.00
26937;BME280;14495;48.116;11.676;2022-11-20T08:24:20;95082.16;;;7.62;100.00
26937;BME280;14495;48.116;11.676;2022-11-20T08:26:46;95079.84;;;7.27;100.00
26937;BME280;14495;48.116;11.676;2022-11-20T08:29:11;95083.94;;;7.76;100.00
26937;BME280;14495;48.116;11.676;2022-11-20T08:31:37;95091.78;;;7.60;100.00
26937;BME280;14495;48.116;11.676;2022-11-20T08:34:03;95096.91;;;7.62;100.00
26937;BME280;14495;48.116;11.676;2022-11-20T08:36:28;95091.81;;;7.74;100.00
26937;BME280;14495;48.116;11.676;2022-11-20T08:38:54;95093.25;;;8.09;100.00
26937;BME280;14495;48.116;11.676;2022-11-20T08:41:21;95087.06;;;7.52;100.00
26937;BME280;14495;48.116;11.676;2022-11-20T08:43:55;95085.59;;;8.20;100.00
26937;BME280;14495;48.116;11.676;2022-11-20T08:46:22;95085.13;;;7.99;100.00
26937;BME280;14495;48.116;11.676;2022-11-20T08:48:48;95088.66;;;8.56;100.00
26937;BME280;14495;48.116;11.676;2022-11-20T08:51:14;95089.78;;;8.08;100.00
26937;BME280;14495;48.116;11.676;2022-11-20T08:53:40;95085.56;;;8.35;100.00
26937;BME280;14495;48.116;11.676;2022-11-20T08:56:05;95078.47;;;8.09;100.00
26937;BME280;14495;48.116;11.676;2022-11-20T08:58:31;95085.41;;;8.23;100.00
26937;BME280;14495;48.116;11.676;2022-11-20T09:00:56;95089.91;;;7.92;100.00
26937;BME280;14495;48.116;11.676;2022-11-20T09:03:22;95087.44;;;8.88;95.46
26937;BME280;14495;48.116;11.676;2022-11-20T09:05:48;95087.81;;;8.55;95.55
26937;BME280;14495;48.116;11.676;2022-11-20T09:08:13;95092.25;;;8.67;99.68
26937;BME280;14495;48.116;11.676;2022-11-20T09:10:38;95081.78;;;8.26;100.00
26937;BME280;14495;48.116;11.676;2022-11-20T09:13:07;95087.03;;;8.67;93.87
26937;BME280;14495;48.116;11.676;2022-11-20T09:15:32;95086.00;;;8.70;91.93
26937;BME280;14495;48.116;11.676;2022-11-20T09:18:00;95080.50;;;8.75;93.18
26937;BME280;14495;48.116;11.676;2022-11-20T09:20:27;95077.31;;;9.11;85.75
26937;BME280;14495;48.116;11.676;2022-11-20T09:22:57;95071.38;;;7.97;89.27
26937;BME280;14495;48.116;11.676;2022-11-20T09:25:22;95075.94;;;8.22;96.17
26937;BME280;14495;48.116;11.676;2022-11-20T09:27:48;95075.38;;;8.31;90.51
26937;BME280;14495;48.116;11.676;2022-11-20T09:30:14;95085.94;;;8.84;87.85
26937;BME280;14495;48.116;11.676;2022-11-20T09:32:40;95076.47;;;8.56;86.90
26937;BME280;14495;48.116;11.676;2022-11-20T09:35:05;95079.53;;;8.63;90.77
26937;BME280;14495;48.116;11.676;2022-11-20T09:37:31;95067.75;;;8.28;90.08
26937;BME280;14495;48.116;11.676;2022-11-20T09:39:56;95063.19;;;8.46;88.30
26937;BME280;14495;48.116;11.676;2022-11-20T09:55:35;95064.38;;;9.09;83.30
26937;BME280;14495;48.116;11.676;2022-11-20T09:58:05;95057.94;;;8.88;81.36
26937;BME280;14495;48.116;11.676;2022-11-20T10:00:31;95059.97;;;9.10;79.94
26937;BME280;14495;48.116;11.676;2022-11-20T10:03:03;95046.38;;;9.32;74.95
26937;BME280;14495;48.116;11.676;2022-11-20T10:05:39;95050.56;;;9.35;75.08
26937;BME280;14495;48.116;11.676;2022-11-20T10:10:50;95046.28;;;9.59;74.28
26937;BME280;14495;48.116;11.676;2022-11-20T10:13:46;95049.00;;;9.45;74.73
26937;BME280;14495;48.116;11.676;2022-11-20T10:16:40;95039.66;;;9.15;75.11
26937;BME280;14495;48.116;11.676;2022-11-20T10:30:31;95039.78;;;8.86;75.05
26937;BME280;14495;48.116;11.676;2022-11-20T10:33:09;95048.91;;;9.85;72.06
26937;BME280;14495;48.116;11.676;2022-11-20T10:38:51;95042.44;;;10.53;70.21
26937;BME280;14495;48.116;11.676;2022-11-20T10:41:26;95049.91;;;10.08;68.63
26937;BME280;14495;48.116;11.676;2022-11-20T10:44:05;95047.03;;;10.87;67.71
26937;BME280;14495;48.116;11.676;2022-11-20T10:46:44;95029.53;;;11.11;64.44
26937;BME280;14495;48.116;11.676;2022-11-20T10:49:14;95034.88;;;10.12;65.75
26937;BME280;14495;48.116;11.676;2022-11-20T10:52:02;95022.94;;;11.41;62.72
26937;BME280;14495;48.116;11.676;2022-11-20T10:57:03;95015.19;;;10.93;63.05
26937;BME280;14495;48.116;11.676;2022-11-20T11:02:21;95013.13;;;10.24;64.80
26937;BME280;14495;48.116;11.676;2022-11-20T11:04:53;95021.72;;;10.87;63.76
26937;BME280;14495;48.116;11.676;2022-11-20T11:07:29;95023.09;;;10.56;65.49
26937;BME280;14495;48.116;11.676;2022-11-20T11:09:56;95027.03;;;10.61;65.83
26937;BME280;14495;48.116;11.676;2022-11-20T11:12:24;95010.94;;;10.18;65.34
26937;BME280;14495;48.116;11.676;2022-11-20T11:14:52;95021.13;;;9.71;66.69
26937;BME280;14495;48.116;11.676;2022-11-20T11:17:27;95019.47;;;9.70;66.65
26937;BME280;14495;48.116;11.676;2022-11-20T11:22:45;95012.38;;;9.59;68.36
26937;BME280;14495;48.116;11.676;2022-11-20T11:25:30;95015.47;;;9.13;71.05
26937;BME280;14495;48.116;11.676;2022-11-20T11:28:01;95010.78;;;9.82;69.88
26937;BME280;14495;48.116;11.676;2022-11-20T11:30:28;95011.94;;;9.40;71.77
26937;BME280;14495;48.116;11.676;2022-11-20T11:33:06;95013.16;;;9.08;72.86
26937;BME280;14495;48.116;11.676;2022-11-20T11:35:32;95013.00;;;9.89;72.46
26937;BME280;14495;48.116;11.676;2022-11-20T11:38:06;95005.16;;;10.01;71.44
26937;BME280;14495;48.116;11.676;2022-11-20T11:40:38;95005.72;;;9.42;72.12
26937;BME280;14495;48.116;11.676;2022-11-20T11:43:15;94999.84;;;10.27;68.78
26937;BME280;14495;48.116;11.676;2022-11-20T11:46:01;94997.47;;;11.20;64.45
26937;BME280;14495;48.116;11.676;2022-11-20T11:48:27;94998.94;;;12.49;61.44
26937;BME280;14495;48.116;11.676;2022-11-20T11:50:52;94999.72;;;12.06;60.01
26937;BME280;14495;48.116;11.676;2022-11-20T11:53:21;94994.59;;;11.12;61.25
26937;BME280;14495;48.116;11.676;2022-11-20T11:55:58;94994.09;;;11.07;61.78
26937;BME280;14495;48.116;11.676;2022-11-20T12:03:36;94994.47;;;10.78;63.70
26937;BME280;14495;48.116;11.676;2022-11-20T12:06:10;95002.69;;;11.20;63.44
26937;BME280;14495;48.116;11.676;2022-11-20T12:08:48;94996.03;;;10.81;63.19
26937;BME280;14495;48.116;11.676;2022-11-20T12:14:19;94988.41;;;11.13;62.12
26937;BME280;14495;48.116;11.676;2022-11-20T12:16:49;94997.72;;;10.93;63.29
26937;BME280;14495;48.116;11.676;2022-11-20T12:19:16;94998.03;;;11.13;63.50
26937;BME280;14495;48.116;11.676;2022-11-20T12:30:04;94997.25;;;9.64;100.00
26937;BME280;14495;48.116;11.676;2022-11-20T12:45:01;95002.25;;;9.16;100.00
26937;BME280;14495;48.116;11.676;2022-11-20T12:48:05;94993.91;;;9.24;100.00
26937;BME280;14495;48.116;11.676;2022-11-20T12:53:52;94997.28;;;8.86;100.00
26937;BME280;14495;48.116;11.676;2022-11-20T13:02:14;94989.00;;;9.19;100.00
26937;BME280;14495;48.116;11.676;2022-11-20T13:05:12;94988.59;;;9.25;100.00
26937;BME280;14495;48.116;11.676;2022-11-20T13:07:42;94994.72;;;9.12;100.00
26937;BME280;14495;48.116;11.676;2022-11-20T13:10:23;94986.19;;;8.69;100.00
26937;BME280;14495;48.116;11.676;2022-11-20T13:13:11;94994.56;;;8.47;100.00
26937;BME280;14495;48.116;11.676;2022-11-20T13:15:50;94995.50;;;8.74;100.00
26937;BME280;14495;48.116;11.676;2022-11-20T13:18:19;94988.47;;;8.61;100.00
26937;BME280;14495;48.116;11.676;2022-11-20T13:20:45;94998.25;;;8.58;100.00
26937;BME280;14495;48.116;11.676;2022-11-20T13:23:22;94981.78;;;8.16;100.00
26937;BME280;14495;48.116;11.676;2022-11-20T13:25:48;94989.34;;;8.47;100.00
26937;BME280;14495;48.116;11.676;2022-11-20T13:30:51;94989.75;;;8.27;100.00
26937;BME280;14495;48.116;11.676;2022-11-20T13:33:32;94984.75;;;8.24;100.00
26937;BME280;14495;48.116;11.676;2022-11-20T13:36:06;94973.66;;;7.93;100.00
26937;BME280;14495;48.116;11.676;2022-11-20T13:38:46;94971.78;;;8.09;100.00
26937;BME280;14495;48.116;11.676;2022-11-20T13:41:23;94970.88;;;8.23;100.00
26937;BME280;14495;48.116;11.676;2022-11-20T13:44:42;94968.41;;;8.49;100.00
26937;BME280;14495;48.116;11.676;2022-11-20T13:47:22;94971.75;;;8.51;100.00
26937;BME280;14495;48.116;11.676;2022-11-20T13:49:48;94972.13;;;7.76;100.00
26937;BME280;14495;48.116;11.676;2022-11-20T14:00:20;94956.16;;;8.09;100.00
26937;BME280;14495;48.116;11.676;2022-11-20T14:05:36;94965.91;;;8.75;100.00
26937;BME280;14495;48.116;11.676;2022-11-20T14:08:06;94965.16;;;8.18;100.00
26937;BME280;14495;48.116;11.676;2022-11-20T14:10:34;94959.88;;;8.47;100.00
26937;BME280;14495;48.116;11.676;2022-11-20T14:13:10;94965.19;;;8.45;100.00
26937;BME280;14495;48.116;11.676;2022-11-20T14:15:35;94967.50;;;9.03;100.00
26937;BME280;14495;48.116;11.676;2022-11-20T14:18:15;94960.56;;;9.16;100.00
26937;BME280;14495;48.116;11.676;2022-11-20T14:20:41;94965.91;;;8.75;100.00
26937;BME280;14495;48.116;11.676;2022-11-20T14:23:10;94965.59;;;8.79;100.00
26937;BME280;14495;48.116;11.676;2022-11-20T14:25:36;94972.22;;;8.98;100.00
26937;BME280;14495;48.116;11.676;2022-11-20T14:28:03;94966.34;;;8.81;100.00
26937;BME280;14495;48.116;11.676;2022-11-20T14:30:49;94964.34;;;8.72;100.00
26937;BME280;14495;48.116;11.676;2022-11-20T14:33:15;94970.00;;;9.04;100.00